Time;durP1;ratioP1;P1;durP2;ratioP2;P2;SDS_P1;SDS_P2;PMS_P1;PMS_P2;Temp;Humidity;BMP_temperature;BMP_pressure;BME280_temperature;BME280_humidity;BME280_pressure;Samples;Min_cycle;Max_cycle;Signal;HPM_P1;HPM_P2
2024/03/15 00:00:00;;;;;;;29.20;17.93;;;7.30;99.90;;;;;;4160733;28;20041;-54
2024/03/15 00:02:01;;;;;;;31.90;17.60;;;7.30;99.90;;;;;;4159508;28;20041;-50
2024/03/15 00:04:02;;;;;;;33.07;17.77;;;7.30;99.90;;;;;;4160413;28;20441;-54
2024/03/15 00:06:05;;;;;;;30.57;17.53;;;7.20;99.90;;;;;;4160272;28;20096;-55
2024/03/15 00:08:06;;;;;;;28.00;17.60;;;7.20;99.90;;;;;;4160199;28;20437;-50
2024/03/15 00:10:08;;;;;;;32.07;18.67;;;7.20;99.90;;;;;;4160932;28;20048;-56
2024/03/15 00:12:09;;;;;;;31.33;18.07;;;7.20;99.90;;;;;;4160296;28;20096;-55
2024/03/15 00:14:10;;;;;;;34.57;20.53;;;7.20;99.90;;;;;;4161305;28;20084;-55
2024/03/15 00:16:12;;;;;;;34.80;20.13;;;7.20;99.90;;;;;;4160213;28;20543;-58
2024/03/15 00:18:17;;;;;;;29.47;17.27;;;7.20;99.90;;;;;;4159352;28;20057;-59
2024/03/15 00:20:18;;;;;;;30.00;17.93;;;7.20;99.90;;;;;;4160055;28;20096;-58
2024/03/15 00:22:21;;;;;;;31.07;17.77;;;7.20;99.90;;;;;;4161298;28;20098;-55
2024/03/15 00:24:23;;;;;;;26.50;15.97;;;7.20;99.90;;;;;;4159923;28;20037;-57
2024/03/15 00:26:24;;;;;;;24.23;14.53;;;7.20;99.90;;;;;;4159741;28;20080;-55
2024/03/15 00:28:26;;;;;;;22.23;14.60;;;7.20;99.90;;;;;;4159879;28;20026;-59
2024/03/15 00:30:27;;;;;;;26.37;15.43;;;7.20;99.90;;;;;;4160472;28;20053;-59
2024/03/15 00:32:28;;;;;;;21.53;14.70;;;7.20;99.90;;;;;;4160076;28;20436;-58
2024/03/15 00:34:30;;;;;;;20.13;13.50;;;7.20;99.90;;;;;;4160251;28;20111;-62
2024/03/15 00:36:32;;;;;;;20.63;13.90;;;7.20;99.90;;;;;;4159818;28;20425;-59
2024/03/15 00:38:33;;;;;;;19.93;13.50;;;7.20;99.90;;;;;;4159530;28;20045;-60
2024/03/15 00:40:34;;;;;;;20.93;13.00;;;7.20;99.90;;;;;;4159775;28;20433;-63
2024/03/15 00:42:36;;;;;;;19.80;13.53;;;7.20;99.90;;;;;;4159388;28;20457;-62
2024/03/15 00:44:37;;;;;;;22.90;14.00;;;7.20;99.90;;;;;;4160611;28;20104;-57
2024/03/15 00:46:38;;;;;;;18.90;11.77;;;7.20;99.90;;;;;;4158717;28;20057;-60
2024/03/15 00:48:40;;;;;;;19.57;13.33;;;7.20;99.90;;;;;;4160157;28;20076;-56
2024/03/15 00:50:43;;;;;;;21.83;14.10;;;7.20;99.90;;;;;;4159489;28;20049;-61
2024/03/15 00:52:44;;;;;;;22.07;13.20;;;7.20;99.90;;;;;;4160316;28;20053;-57
2024/03/15 00:54:47;;;;;;;20.23;12.23;;;7.20;99.90;;;;;;4158419;28;20037;-53
2024/03/15 00:56:48;;;;;;;17.97;12.33;;;7.20;99.90;;;;;;4159302;28;20091;-55
2024/03/15 00:58:50;;;;;;;17.87;11.43;;;7.20;99.90;;;;;;4159401;28;20018;-58
2024/03/15 01:00:52;;;;;;;17.10;11.20;;;7.20;99.90;;;;;;4160396;28;20038;-57
2024/03/15 01:02:53;;;;;;;15.97;10.90;;;7.30;99.90;;;;;;4160446;28;20195;-60
2024/03/15 01:04:54;;;;;;;22.97;12.23;;;7.20;99.90;;;;;;4163770;28;20544;-61
2024/03/15 01:06:56;;;;;;;16.43;10.77;;;7.20;99.90;;;;;;4162880;28;20058;-60
2024/03/15 01:08:58;;;;;;;17.90;11.63;;;7.20;99.90;;;;;;4163046;28;20080;-60
2024/03/15 01:11:00;;;;;;;19.20;12.40;;;7.20;99.90;;;;;;4162437;28;20033;-58
2024/03/15 01:13:03;;;;;;;23.37;15.10;;;7.20;99.90;;;;;;4160950;28;20088;-56
2024/03/15 01:15:04;;;;;;;23.73;14.23;;;7.20;99.90;;;;;;4162868;28;20053;-58
2024/03/15 01:17:07;;;;;;;18.73;13.13;;;7.20;99.90;;;;;;4161319;28;20477;-61
2024/03/15 01:19:08;;;;;;;21.20;13.87;;;7.10;99.90;;;;;;4163819;28;20045;-60
2024/03/15 01:21:10;;;;;;;20.97;13.23;;;7.10;99.90;;;;;;4162693;28;20426;-55
2024/03/15 01:23:11;;;;;;;21.50;13.63;;;7.10;99.90;;;;;;4162760;28;20092;-51
2024/03/15 01:25:12;;;;;;;26.30;14.87;;;7.00;99.90;;;;;;4162199;28;20490;-57
2024/03/15 01:27:14;;;;;;;25.93;15.87;;;7.10;99.90;;;;;;4162937;28;20518;-55
2024/03/15 01:29:16;;;;;;;25.47;16.43;;;7.10;99.90;;;;;;4162062;28;20045;-57
2024/03/15 01:31:18;;;;;;;20.33;13.63;;;7.10;99.90;;;;;;4163713;28;20379;-58
2024/03/15 01:33:19;;;;;;;19.77;12.90;;;7.00;99.90;;;;;;4162393;28;20172;-56
2024/03/15 01:35:20;;;;;;;17.73;12.37;;;7.00;99.90;;;;;;4162689;28;20079;-58
2024/03/15 01:37:23;;;;;;;17.30;12.27;;;7.00;99.90;;;;;;4161512;28;20026;-53
2024/03/15 01:39:24;;;;;;;20.77;13.53;;;7.00;99.90;;;;;;4163156;28;20096;-55
2024/03/15 01:41:26;;;;;;;21.33;13.20;;;7.00;99.90;;;;;;4161825;28;20029;-58
2024/03/15 01:43:27;;;;;;;23.43;13.83;;;7.00;99.90;;;;;;4162969;28;20025;-58
2024/03/15 01:45:28;;;;;;;25.60;16.13;;;7.00;99.90;;;;;;4161936;28;20096;-57
2024/03/15 01:47:30;;;;;;;31.13;17.13;;;6.90;99.90;;;;;;4162276;28;20065;-61
2024/03/15 01:49:31;;;;;;;30.70;18.03;;;6.90;99.90;;;;;;4163627;28;20021;-52
2024/03/15 01:51:33;;;;;;;33.83;16.93;;;6.90;99.90;;;;;;4162280;28;20033;-56
2024/03/15 01:53:35;;;;;;;28.10;16.67;;;6.90;99.90;;;;;;4162891;28;20087;-55
2024/03/15 01:55:36;;;;;;;29.90;17.37;;;6.90;99.90;;;;;;4162500;28;20033;-52
2024/03/15 01:57:39;;;;;;;39.53;20.67;;;6.90;99.90;;;;;;4162462;28;20087;-58
2024/03/15 01:59:41;;;;;;;42.00;22.00;;;6.80;99.90;;;;;;4161016;28;20045;-53
2024/03/15 02:01:42;;;;;;;57.13;29.87;;;6.80;99.90;;;;;;4162391;28;20037;-56
2024/03/15 02:03:46;;;;;;;39.60;21.43;;;6.80;99.90;;;;;;4162085;28;20099;-58
2024/03/15 02:05:47;;;;;;;44.80;24.10;;;6.80;99.90;;;;;;4161825;28;20013;-56
2024/03/15 02:07:50;;;;;;;39.20;22.00;;;6.80;99.90;;;;;;4162009;28;20773;-53
2024/03/15 02:09:51;;;;;;;36.73;19.90;;;6.80;99.90;;;;;;4162924;28;20029;-56
2024/03/15 02:11:52;;;;;;;28.47;16.50;;;6.80;99.90;;;;;;4161532;28;20049;-60
2024/03/15 02:13:54;;;;;;;23.87;15.17;;;6.80;99.90;;;;;;4162048;28;20021;-59
2024/03/15 02:15:55;;;;;;;24.53;15.33;;;6.80;99.90;;;;;;4162057;28;20076;-59
2024/03/15 02:17:57;;;;;;;31.17;18.77;;;6.80;99.90;;;;;;4160971;28;20038;-56
2024/03/15 02:19:58;;;;;;;32.43;20.30;;;6.80;99.90;;;;;;4160297;28;20067;-58
2024/03/15 02:22:00;;;;;;;36.57;19.63;;;6.80;99.90;;;;;;4161824;28;20017;-59
2024/03/15 02:24:03;;;;;;;26.67;16.47;;;6.80;99.90;;;;;;4160699;28;20045;-56
2024/03/15 02:26:04;;;;;;;26.53;15.50;;;6.90;99.90;;;;;;4160294;28;20049;-55
2024/03/15 02:28:06;;;;;;;21.10;14.07;;;6.80;99.90;;;;;;4161835;28;20053;-57
2024/03/15 02:30:07;;;;;;;21.13;14.50;;;6.80;99.90;;;;;;4160599;28;20132;-59
2024/03/15 02:32:09;;;;;;;22.23;14.20;;;6.80;99.90;;;;;;4161707;28;20042;-55
2024/03/15 02:34:10;;;;;;;21.53;14.50;;;6.80;99.90;;;;;;4160346;28;20037;-55
2024/03/15 02:36:11;;;;;;;22.93;14.10;;;6.80;99.90;;;;;;4160815;28;20037;-60
2024/03/15 02:38:12;;;;;;;24.37;15.07;;;6.80;99.90;;;;;;4161020;28;20425;-58
2024/03/15 02:40:14;;;;;;;21.80;13.50;;;6.70;99.90;;;;;;4162265;28;20045;-61
2024/03/15 02:42:15;;;;;;;22.27;14.70;;;6.70;99.90;;;;;;4161535;28;20033;-55
2024/03/15 02:44:16;;;;;;;24.03;14.70;;;6.60;99.90;;;;;;4161979;28;20033;-57
2024/03/15 02:46:17;;;;;;;22.87;14.77;;;6.50;99.90;;;;;;4156438;28;20131;-58
2024/03/15 02:48:19;;;;;;;24.83;15.30;;;6.50;99.90;;;;;;4161424;28;20041;-58
2024/03/15 02:50:20;;;;;;;25.77;15.33;;;6.50;99.90;;;;;;4161873;28;20042;-58
2024/03/15 02:52:21;;;;;;;25.97;17.97;;;6.40;99.90;;;;;;4160618;28;20131;-58
2024/03/15 02:54:27;;;;;;;23.30;15.57;;;6.40;99.90;;;;;;4162286;28;20470;-53
2024/03/15 02:56:28;;;;;;;25.20;15.60;;;6.40;99.90;;;;;;4161620;28;20052;-57
2024/03/15 02:58:30;;;;;;;24.20;14.60;;;6.40;99.90;;;;;;4161339;28;20085;-53
2024/03/15 03:00:31;;;;;;;23.57;15.40;;;6.40;99.90;;;;;;4160638;28;20041;-57
2024/03/15 03:02:33;;;;;;;24.40;15.23;;;6.40;99.90;;;;;;4162168;28;20057;-54
2024/03/15 03:04:35;;;;;;;24.97;15.83;;;6.40;99.90;;;;;;4160839;28;21567;-56
2024/03/15 03:06:36;;;;;;;24.83;15.23;;;6.40;99.90;;;;;;4161956;28;20482;-57
2024/03/15 03:08:38;;;;;;;36.10;21.07;;;6.50;99.90;;;;;;4159659;28;20099;-54
2024/03/15 03:10:39;;;;;;;33.60;20.17;;;6.50;99.90;;;;;;4161415;28;20433;-58
2024/03/15 03:12:41;;;;;;;31.73;18.70;;;6.60;99.90;;;;;;4160541;28;20083;-55
2024/03/15 03:14:45;;;;;;;29.03;18.33;;;6.50;99.90;;;;;;4161926;28;20079;-56
2024/03/15 03:16:46;;;;;;;25.17;15.53;;;6.60;99.90;;;;;;4161138;28;20413;-54
2024/03/15 03:18:48;;;;;;;27.50;17.10;;;6.60;99.90;;;;;;4160315;28;20099;-53
2024/03/15 03:20:49;;;;;;;24.47;15.93;;;6.60;99.90;;;;;;4160253;28;20517;-55
2024/03/15 03:22:53;;;;;;;25.40;15.40;;;6.60;99.90;;;;;;4161373;28;20397;-56
2024/03/15 03:24:54;;;;;;;22.47;14.87;;;6.60;99.90;;;;;;4161283;28;20449;-54
2024/03/15 03:26:55;;;;;;;27.30;15.33;;;6.60;99.90;;;;;;4160746;28;20046;-55
2024/03/15 03:28:57;;;;;;;21.83;14.33;;;6.60;99.90;;;;;;4161053;28;20038;-55
2024/03/15 03:30:58;;;;;;;25.43;15.10;;;6.60;99.90;;;;;;4160050;28;20045;-59
2024/03/15 03:32:59;;;;;;;24.40;15.03;;;6.60;99.90;;;;;;4162078;28;20033;-57
2024/03/15 03:35:03;;;;;;;23.53;15.77;;;6.60;99.90;;;;;;4159892;28;20563;-53
2024/03/15 03:37:04;;;;;;;22.70;15.03;;;6.60;99.90;;;;;;4161188;28;20510;-58
2024/03/15 03:39:05;;;;;;;28.87;17.80;;;6.50;99.90;;;;;;4160914;28;20029;-57
2024/03/15 03:41:07;;;;;;;34.57;21.23;;;6.50;99.90;;;;;;4160443;28;20049;-54
2024/03/15 03:43:09;;;;;;;37.23;23.63;;;6.60;99.90;;;;;;4159799;28;20505;-58
2024/03/15 03:45:16;;;;;;;29.17;18.80;;;6.60;99.90;;;;;;4161815;28;20025;-57
2024/03/15 03:47:17;;;;;;;22.07;14.53;;;6.60;99.90;;;;;;4160286;28;20501;-53
2024/03/15 03:49:18;;;;;;;22.27;14.60;;;6.60;99.90;;;;;;4161384;28;20033;-59
2024/03/15 03:51:20;;;;;;;24.57;15.03;;;6.70;99.90;;;;;;4161234;28;20548;-55
2024/03/15 03:53:21;;;;;;;22.60;13.83;;;6.70;99.90;;;;;;4161257;28;20044;-55
2024/03/15 03:55:22;;;;;;;24.20;14.63;;;6.70;99.90;;;;;;4160995;28;20029;-55
2024/03/15 03:57:23;;;;;;;23.83;15.20;;;6.70;99.90;;;;;;4160473;28;20519;-59
2024/03/15 03:59:27;;;;;;;23.03;14.90;;;6.70;99.90;;;;;;4161414;28;20103;-55
2024/03/15 04:01:28;;;;;;;24.27;15.50;;;6.70;99.90;;;;;;4160002;28;20380;-57
2024/03/15 04:03:30;;;;;;;19.87;13.27;;;6.70;99.90;;;;;;4161757;28;20033;-54
2024/03/15 04:05:32;;;;;;;19.63;13.67;;;6.70;99.90;;;;;;4160065;28;20071;-52
2024/03/15 04:07:33;;;;;;;19.60;13.13;;;6.70;99.90;;;;;;4161266;28;20080;-59
2024/03/15 04:09:35;;;;;;;20.73;13.50;;;6.70;99.90;;;;;;4159349;28;20115;-55
2024/03/15 04:11:38;;;;;;;19.00;13.47;;;6.70;99.90;;;;;;4161164;28;20037;-55
2024/03/15 04:13:39;;;;;;;20.07;12.93;;;6.70;99.90;;;;;;4159663;28;20060;-56
2024/03/15 04:15:46;;;;;;;18.90;12.47;;;6.70;99.90;;;;;;4161563;28;20033;-55
2024/03/15 04:17:47;;;;;;;21.20;13.63;;;6.70;99.90;;;;;;4160304;28;20041;-57
2024/03/15 04:19:49;;;;;;;19.23;12.80;;;6.70;99.90;;;;;;4160975;28;20393;-56
2024/03/15 04:21:51;;;;;;;20.20;13.03;;;6.70;99.90;;;;;;4159317;28;20038;-54
2024/03/15 04:23:55;;;;;;;20.27;13.00;;;6.70;99.90;;;;;;4159933;28;20107;-59
2024/03/15 04:25:57;;;;;;;19.80;12.47;;;6.60;99.90;;;;;;4158488;28;20111;-54
2024/03/15 04:27:58;;;;;;;18.20;12.27;;;6.70;99.90;;;;;;4159444;28;20092;-56
2024/03/15 04:30:13;;;;;;;16.70;12.33;;;6.60;99.90;;;;;;4142450;28;20088;-58
2024/03/15 04:32:14;;;;;;;19.23;12.00;;;6.60;99.90;;;;;;4160327;28;20393;-58
2024/03/15 04:34:15;;;;;;;19.47;13.03;;;6.60;99.90;;;;;;4160763;28;20037;-57
2024/03/15 04:36:17;;;;;;;19.73;11.90;;;6.60;99.90;;;;;;4160157;28;20100;-56
2024/03/15 04:38:18;;;;;;;17.23;12.23;;;6.60;99.90;;;;;;4160127;28;20042;-58
2024/03/15 04:40:20;;;;;;;17.27;12.27;;;6.60;99.90;;;;;;4159922;28;20422;-54
2024/03/15 04:42:21;;;;;;;21.63;13.07;;;6.60;99.90;;;;;;4159886;28;20099;-56
2024/03/15 04:44:22;;;;;;;21.47;14.03;;;6.60;99.90;;;;;;4157864;28;20490;-58
2024/03/15 04:46:24;;;;;;;20.97;12.87;;;6.70;99.90;;;;;;4159587;28;20473;-56
2024/03/15 04:48:25;;;;;;;18.17;12.70;;;6.70;99.90;;;;;;4158814;28;20029;-55
2024/03/15 04:50:26;;;;;;;19.97;13.13;;;6.70;99.90;;;;;;4160555;28;20042;-58
2024/03/15 04:52:27;;;;;;;19.00;12.37;;;6.70;99.90;;;;;;4160439;28;20371;-57
2024/03/15 04:54:30;;;;;;;18.03;12.17;;;6.70;99.90;;;;;;4161301;28;20144;-58
2024/03/15 04:56:33;;;;;;;18.47;12.37;;;6.60;99.90;;;;;;4158767;28;20034;-54
2024/03/15 04:58:34;;;;;;;19.63;13.13;;;6.60;99.90;;;;;;4160264;28;20126;-59
2024/03/15 05:00:35;;;;;;;20.83;13.60;;;6.60;99.90;;;;;;4158884;28;20041;-58
2024/03/15 05:02:37;;;;;;;18.60;12.57;;;6.60;99.90;;;;;;4159633;28;20045;-60
2024/03/15 05:04:41;;;;;;;21.17;13.50;;;6.60;99.90;;;;;;4159909;28;20037;-51
2024/03/15 05:06:43;;;;;;;19.70;12.73;;;6.70;99.90;;;;;;4159593;28;20099;-56
2024/03/15 05:08:44;;;;;;;20.10;13.27;;;6.70;99.90;;;;;;4160961;28;20083;-61
2024/03/15 05:10:46;;;;;;;18.97;12.60;;;6.70;99.90;;;;;;4158658;28;20049;-58
2024/03/15 05:12:51;;;;;;;19.83;12.87;;;6.80;99.90;;;;;;4160565;28;20441;-59
2024/03/15 05:14:52;;;;;;;21.47;14.20;;;6.80;99.90;;;;;;4159151;28;20079;-58
2024/03/15 05:16:54;;;;;;;19.80;13.37;;;6.80;99.90;;;;;;4159571;28;20038;-57
2024/03/15 05:18:56;;;;;;;20.57;13.63;;;6.70;99.90;;;;;;4159678;28;20067;-59
2024/03/15 05:20:57;;;;;;;21.53;13.03;;;6.70;99.90;;;;;;4159620;28;20091;-58
2024/03/15 05:22:59;;;;;;;19.97;13.20;;;6.70;99.90;;;;;;4159987;28;20029;-60
2024/03/15 05:25:00;;;;;;;18.73;12.37;;;6.70;99.90;;;;;;4160589;28;20033;-53
2024/03/15 05:27:02;;;;;;;18.57;13.13;;;6.70;99.90;;;;;;4159332;28;20436;-57
2024/03/15 05:29:04;;;;;;;21.67;13.93;;;6.70;99.90;;;;;;4159730;28;20482;-58
2024/03/15 05:31:08;;;;;;;18.27;13.07;;;6.70;99.90;;;;;;4159258;28;20025;-57
2024/03/15 05:33:10;;;;;;;19.80;13.73;;;6.70;99.90;;;;;;4159692;28;20084;-57
2024/03/15 05:35:11;;;;;;;24.37;14.30;;;6.70;99.90;;;;;;4159985;28;20088;-59
2024/03/15 05:37:12;;;;;;;31.13;16.27;;;6.70;99.90;;;;;;4159110;28;20091;-60
2024/03/15 05:39:14;;;;;;;27.40;16.33;;;6.70;99.90;;;;;;4160430;28;20076;-54
2024/03/15 05:41:15;;;;;;;21.67;14.30;;;6.80;99.90;;;;;;4158955;28;20029;-62
2024/03/15 05:43:17;;;;;;;19.97;13.93;;;6.80;99.90;;;;;;4160121;28;20482;-60
2024/03/15 05:45:20;;;;;;;23.97;14.67;;;6.90;99.90;;;;;;4158950;28;20096;-60
2024/03/15 05:47:22;;;;;;;28.27;14.60;;;6.90;99.90;;;;;;4157771;28;20348;-57
2024/03/15 05:49:24;;;;;;;19.27;13.17;;;7.00;99.90;;;;;;4158968;28;20044;-58
2024/03/15 05:51:26;;;;;;;19.77;12.37;;;7.10;99.90;;;;;;4162638;28;20041;-57
2024/03/15 05:53:29;;;;;;;23.00;13.97;;;7.10;99.90;;;;;;4162793;28;20103;-58
2024/03/15 05:55:32;;;;;;;21.50;13.20;;;7.20;99.90;;;;;;4162287;28;20064;-61
2024/03/15 05:57:33;;;;;;;19.63;11.90;;;7.20;99.90;;;;;;4162009;28;20454;-58
2024/03/15 05:59:34;;;;;;;19.30;12.73;;;7.20;99.90;;;;;;4162830;28;20367;-58
2024/03/15 06:01:35;;;;;;;19.10;13.30;;;7.20;99.90;;;;;;4161976;28;20034;-54
2024/03/15 06:03:37;;;;;;;18.97;12.47;;;7.30;99.90;;;;;;4162587;28;20144;-59
2024/03/15 06:05:38;;;;;;;32.77;16.07;;;7.20;99.90;;;;;;4162174;28;20025;-52
2024/03/15 06:07:40;;;;;;;22.47;13.93;;;7.30;99.90;;;;;;4162903;28;20033;-61
2024/03/15 06:09:42;;;;;;;22.87;13.20;;;7.30;99.90;;;;;;4162054;28;20096;-57
2024/03/15 06:11:43;;;;;;;48.17;21.60;;;7.30;99.90;;;;;;4161478;28;20087;-53
2024/03/15 06:13:44;;;;;;;17.93;11.47;;;7.40;99.90;;;;;;4162061;28;20466;-65
2024/03/15 06:15:46;;;;;;;16.73;12.67;;;7.40;99.90;;;;;;4160562;28;20053;-58
2024/03/15 06:17:48;;;;;;;18.50;11.93;;;7.40;99.90;;;;;;4162665;28;20140;-58
2024/03/15 06:19:51;;;;;;;15.63;11.17;;;7.40;99.90;;;;;;4161063;28;20084;-57
2024/03/15 06:21:53;;;;;;;18.20;12.30;;;7.40;99.90;;;;;;4162394;28;20383;-56
2024/03/15 06:23:55;;;;;;;15.00;11.03;;;7.40;99.90;;;;;;4161528;28;20033;-57
2024/03/15 06:25:56;;;;;;;18.10;12.03;;;7.40;99.90;;;;;;4162027;28;20042;-58
2024/03/15 06:28:06;;;;;;;19.27;12.07;;;7.40;99.90;;;;;;4161282;28;20058;-58
2024/03/15 06:30:08;;;;;;;22.10;14.77;;;7.40;99.90;;;;;;4161475;28;20053;-59
2024/03/15 06:32:14;;;;;;;21.73;13.83;;;7.40;99.90;;;;;;4160852;28;20045;-58
2024/03/15 06:34:22;;;;;;;22.70;13.23;;;7.50;99.90;;;;;;4145423;28;20076;-53
2024/03/15 06:36:29;;;;;;;23.97;14.63;;;7.50;99.90;;;;;;4160967;28;20045;-56
2024/03/15 06:38:40;;;;;;;18.67;12.13;;;7.50;99.90;;;;;;4163004;28;20030;-59
2024/03/15 06:41:07;;;;;;;16.67;11.40;;;7.60;99.90;;;;;;4160848;28;20091;-59
2024/03/15 06:43:13;;;;;;;16.80;12.33;;;7.70;99.90;;;;;;4161951;28;20017;-59
2024/03/15 06:45:23;;;;;;;18.23;12.20;;;7.70;99.90;;;;;;4161791;28;20021;-59
2024/03/15 06:47:28;;;;;;;18.08;12.63;;;7.70;99.90;;;;;;4162517;28;20529;-53
2024/03/15 06:49:48;;;;;;;18.80;12.53;;;7.70;99.90;;;;;;4160687;28;20038;-60
2024/03/15 06:54:09;;;;;;;17.15;11.95;;;7.70;99.90;;;;;;4161795;28;20544;-59
2024/03/15 06:56:11;;;;;;;25.73;14.13;;;7.80;99.90;;;;;;4162385;28;20030;-57
2024/03/15 06:58:13;;;;;;;21.30;13.47;;;7.80;99.90;;;;;;4160752;28;20038;-58
2024/03/15 07:00:15;;;;;;;21.47;13.10;;;7.90;99.90;;;;;;4161515;28;20025;-59
2024/03/15 07:02:17;;;;;;;19.90;13.13;;;7.90;99.90;;;;;;4143304;28;20042;-58
2024/03/15 07:04:18;;;;;;;18.50;11.67;;;8.00;99.90;;;;;;4162449;28;20037;-58
2024/03/15 07:06:20;;;;;;;18.93;11.67;;;8.10;99.90;;;;;;4161531;28;20026;-59
2024/03/15 07:08:21;;;;;;;17.30;11.77;;;8.10;99.90;;;;;;4161640;28;20493;-58
2024/03/15 07:10:22;;;;;;;19.57;11.33;;;8.20;99.90;;;;;;4160642;28;20370;-60
2024/03/15 07:12:24;;;;;;;14.63;9.80;;;8.30;99.90;;;;;;4161072;28;20096;-59
2024/03/15 07:14:25;;;;;;;15.73;9.67;;;8.40;99.90;;;;;;4160924;28;20103;-57
2024/03/15 07:16:27;;;;;;;20.90;10.90;;;8.50;99.90;;;;;;4160292;28;20087;-59
2024/03/15 07:18:28;;;;;;;21.97;12.00;;;8.60;99.90;;;;;;4161949;28;20405;-60
2024/03/15 07:20:30;;;;;;;28.63;13.83;;;8.70;99.90;;;;;;4159959;28;20049;-59
2024/03/15 07:22:31;;;;;;;21.10;12.00;;;8.70;99.90;;;;;;4162100;28;20066;-59
2024/03/15 07:24:35;;;;;;;23.70;12.17;;;8.80;99.90;;;;;;4160926;28;20083;-57
2024/03/15 07:26:37;;;;;;;22.20;12.80;;;8.90;99.90;;;;;;4161706;28;20520;-56
2024/03/15 07:28:39;;;;;;;28.80;14.67;;;9.00;99.90;;;;;;4160715;28;20083;-59
2024/03/15 07:30:40;;;;;;;29.80;16.70;;;9.30;99.90;;;;;;4161850;28;20030;-60
2024/03/15 07:32:42;;;;;;;26.43;14.53;;;9.40;99.90;;;;;;4160679;28;20488;-59
2024/03/15 07:34:43;;;;;;;19.87;12.40;;;9.70;99.90;;;;;;4161206;28;20386;-60
2024/03/15 07:36:46;;;;;;;18.57;11.47;;;10.00;99.90;;;;;;4159888;28;20033;-58
2024/03/15 07:38:47;;;;;;;17.27;10.93;;;10.30;99.90;;;;;;4161054;28;20100;-61
2024/03/15 07:40:49;;;;;;;13.93;9.33;;;10.70;99.90;;;;;;4160530;28;20060;-59
2024/03/15 07:42:53;;;;;;;11.93;9.07;;;11.10;99.90;;;;;;4159980;28;20401;-59
2024/03/15 07:44:54;;;;;;;13.07;8.83;;;11.50;99.90;;;;;;4160600;28;20091;-56
2024/03/15 07:46:58;;;;;;;12.40;9.17;;;11.30;99.90;;;;;;4160726;28;20021;-56
2024/03/15 07:48:59;;;;;;;13.73;9.90;;;11.30;99.90;;;;;;4160343;28;20057;-57
2024/03/15 07:51:01;;;;;;;19.07;12.07;;;11.10;99.90;;;;;;4159793;28;20508;-58
2024/03/15 07:53:03;;;;;;;20.00;12.87;;;11.10;99.90;;;;;;4161528;28;20528;-60
2024/03/15 07:55:05;;;;;;;15.53;10.80;;;11.10;99.90;;;;;;4160194;28;20079;-58
2024/03/15 07:57:07;;;;;;;14.60;10.47;;;11.30;99.90;;;;;;4160488;28;20136;-59
2024/03/15 07:59:08;;;;;;;15.47;9.80;;;11.50;99.90;;;;;;4159330;28;20094;-56
2024/03/15 08:01:10;;;;;;;15.67;10.43;;;11.80;99.90;;;;;;4161506;28;20021;-64
2024/03/15 08:03:12;;;;;;;13.70;8.90;;;11.90;99.90;;;;;;4160103;28;20393;-56
2024/03/15 08:05:16;;;;;;;11.57;8.40;;;11.70;99.90;;;;;;4158659;28;20449;-59
2024/03/15 08:07:18;;;;;;;12.43;8.63;;;11.50;99.90;;;;;;4159229;28;20447;-58
2024/03/15 08:09:19;;;;;;;12.27;8.17;;;11.50;99.90;;;;;;4160860;28;20120;-58
2024/03/15 08:11:20;;;;;;;12.80;9.37;;;11.60;99.90;;;;;;4159377;28;20029;-58
2024/03/15 08:13:25;;;;;;;11.37;8.00;;;11.30;99.90;;;;;;4159673;28;20041;-54
2024/03/15 08:15:29;;;;;;;13.00;8.67;;;10.90;99.90;;;;;;4160313;28;20103;-59
2024/03/15 08:17:31;;;;;;;10.87;8.10;;;10.70;99.90;;;;;;4159665;28;20127;-57
2024/03/15 08:19:32;;;;;;;17.13;10.27;;;10.60;99.90;;;;;;4160298;28;20026;-57
2024/03/15 08:21:37;;;;;;;16.53;9.20;;;10.60;99.90;;;;;;4160195;28;20072;-59
2024/03/15 08:23:38;;;;;;;15.73;9.47;;;10.50;99.90;;;;;;4160774;28;20021;-59
2024/03/15 08:25:41;;;;;;;24.97;12.03;;;10.50;99.90;;;;;;4159175;28;20139;-59
2024/03/15 08:27:44;;;;;;;30.63;13.70;;;10.40;99.90;;;;;;4159886;28;20049;-59
2024/03/15 08:29:46;;;;;;;19.93;11.50;;;10.30;99.90;;;;;;4159248;28;20033;-58
2024/03/15 08:31:48;;;;;;;13.13;8.73;;;10.10;99.90;;;;;;4160185;28;20409;-58
2024/03/15 08:33:49;;;;;;;12.50;8.77;;;10.10;99.90;;;;;;4158965;28;20107;-58
2024/03/15 08:35:50;;;;;;;10.60;8.33;;;10.00;99.90;;;;;;4160196;28;20049;-55
2024/03/15 08:37:52;;;;;;;13.10;9.50;;;9.90;99.90;;;;;;4159230;28;20037;-56
2024/03/15 08:39:53;;;;;;;12.67;8.93;;;10.00;99.90;;;;;;4161345;28;20076;-60
2024/03/15 08:41:55;;;;;;;10.43;7.53;;;10.00;99.90;;;;;;4158904;28;20041;-53
2024/03/15 08:43:56;;;;;;;11.00;7.30;;;9.90;99.90;;;;;;4160981;28;20087;-57
2024/03/15 08:45:58;;;;;;;10.87;7.17;;;9.90;99.90;;;;;;4159702;28;20053;-59
2024/03/15 08:48:00;;;;;;;10.60;7.47;;;9.70;99.90;;;;;;4159720;28;20505;-61
2024/03/15 08:50:03;;;;;;;12.60;7.70;;;9.70;99.90;;;;;;4158957;28;20045;-60
2024/03/15 08:52:04;;;;;;;10.77;7.80;;;9.70;99.90;;;;;;4159384;28;20103;-59
2024/03/15 08:54:06;;;;;;;10.83;7.73;;;9.80;99.90;;;;;;4159172;28;20502;-59
2024/03/15 08:56:08;;;;;;;10.93;7.57;;;9.80;99.90;;;;;;4159050;28;20045;-60
2024/03/15 08:58:11;;;;;;;11.07;7.30;;;9.80;99.90;;;;;;4160416;28;20297;-59
2024/03/15 09:00:13;;;;;;;12.97;8.03;;;9.90;99.90;;;;;;4158979;28;20115;-60
2024/03/15 09:02:14;;;;;;;13.57;8.33;;;10.10;99.90;;;;;;4160731;28;20025;-58
2024/03/15 09:04:18;;;;;;;11.10;6.90;;;10.30;99.90;;;;;;4159486;28;20076;-58
2024/03/15 09:06:19;;;;;;;8.97;6.70;;;10.30;99.90;;;;;;4160769;28;20411;-59
2024/03/15 09:08:21;;;;;;;12.77;8.40;;;10.30;99.90;;;;;;4141219;28;20486;-59
2024/03/15 09:10:23;;;;;;;10.63;7.00;;;10.40;99.90;;;;;;4161173;28;20087;-58
2024/03/15 09:12:24;;;;;;;9.97;6.60;;;10.40;99.90;;;;;;4158754;28;20113;-58
2024/03/15 09:14:29;;;;;;;9.43;6.60;;;10.40;99.90;;;;;;4160881;28;20041;-59
2024/03/15 09:16:30;;;;;;;10.47;6.80;;;10.50;99.90;;;;;;4158385;28;20122;-59
2024/03/15 09:18:33;;;;;;;15.27;9.90;;;10.60;99.90;;;;;;4159892;28;20063;-58
2024/03/15 09:20:35;;;;;;;11.40;7.33;;;10.70;99.90;;;;;;4158693;28;20670;-59
2024/03/15 09:22:38;;;;;;;9.90;7.77;;;10.60;99.90;;;;;;4159702;28;20041;-59
2024/03/15 09:24:39;;;;;;;11.07;6.93;;;10.50;99.90;;;;;;4161411;28;20033;-58
2024/03/15 09:26:41;;;;;;;9.47;6.77;;;10.60;99.90;;;;;;4162288;28;20481;-59
2024/03/15 09:28:47;;;;;;;9.97;6.87;;;10.70;99.90;;;;;;4163270;28;20096;-59
2024/03/15 09:32:51;;;;;;;10.00;6.90;;;10.80;99.90;;;;;;4163632;28;20419;-59
2024/03/15 09:34:52;;;;;;;10.83;7.23;;;10.90;99.90;;;;;;4161777;28;20037;-60
2024/03/15 09:36:55;;;;;;;13.70;8.83;;;10.90;99.90;;;;;;4163484;28;20060;-58
2024/03/15 09:38:57;;;;;;;17.43;10.60;;;11.00;99.90;;;;;;4162098;28;20042;-59
2024/03/15 09:40:58;;;;;;;12.07;8.43;;;11.20;99.90;;;;;;4159953;28;20100;-54
2024/03/15 09:42:59;;;;;;;11.47;7.80;;;11.30;99.90;;;;;;4144906;28;20556;-58
2024/03/15 09:45:01;;;;;;;10.67;7.27;;;11.40;99.90;;;;;;4147011;28;20490;-55
2024/03/15 09:47:04;;;;;;;9.33;6.40;;;11.60;99.90;;;;;;4145396;28;20088;-60
2024/03/15 09:49:07;;;;;;;8.00;5.93;;;11.70;99.90;;;;;;4129689;28;20042;-58
2024/03/15 09:51:10;;;;;;;8.70;6.23;;;11.70;99.90;;;;;;4145804;28;20454;-60
2024/03/15 09:53:11;;;;;;;10.17;6.07;;;11.80;99.90;;;;;;4146972;28;20022;-58
2024/03/15 09:55:16;;;;;;;10.63;6.60;;;12.00;99.90;;;;;;4145490;28;20491;-56
2024/03/15 09:57:18;;;;;;;9.23;5.60;;;12.00;99.90;;;;;;4146593;28;20437;-56
2024/03/15 09:59:28;;;;;;;8.97;5.43;;;12.00;99.90;;;;;;4145377;28;20030;-55
2024/03/15 10:01:32;;;;;;;10.77;5.80;;;12.10;99.90;;;;;;4146528;28;20034;-57
2024/03/15 10:03:33;;;;;;;8.67;5.07;;;12.40;99.90;;;;;;4145401;28;20353;-60
2024/03/15 10:05:34;;;;;;;9.33;6.00;;;12.60;99.90;;;;;;4146360;28;20084;-60
2024/03/15 10:07:36;;;;;;;9.57;5.87;;;12.70;99.90;;;;;;4146200;28;20053;-58
2024/03/15 10:09:41;;;;;;;9.53;5.93;;;12.60;99.90;;;;;;4145876;28;20124;-54
2024/03/15 10:11:43;;;;;;;8.33;5.90;;;12.50;99.90;;;;;;4145970;28;20107;-60
2024/03/15 10:13:44;;;;;;;13.47;6.20;;;12.40;99.90;;;;;;4144892;28;20135;-59
2024/03/15 10:15:45;;;;;;;10.80;6.30;;;12.40;99.90;;;;;;4146904;28;20426;-60
2024/03/15 10:17:54;;;;;;;8.50;5.30;;;12.30;99.90;;;;;;4144607;28;20038;-58
2024/03/15 10:19:55;;;;;;;9.60;6.73;;;11.70;99.90;;;;;;4146691;28;20041;-61
2024/03/15 10:21:59;;;;;;;18.13;9.87;;;11.30;99.90;;;;;;4145171;28;20088;-58
2024/03/15 10:24:01;;;;;;;12.63;7.83;;;11.10;99.90;;;;;;4146599;28;20092;-61
2024/03/15 10:26:03;;;;;;;21.27;11.10;;;10.80;99.90;;;;;;4145243;28;20029;-56
2024/03/15 10:28:06;;;;;;;10.30;7.37;;;10.70;99.90;;;;;;4145175;28;20511;-59
2024/03/15 10:30:15;;;;;;;10.07;6.80;;;10.50;99.90;;;;;;4144565;28;20120;-59
2024/03/15 10:32:16;;;;;;;9.50;7.20;;;10.40;99.90;;;;;;4146192;28;20034;-60